sensor_id;sensor_type;location;lat;lon;timestamp;P1;durP1;ratioP1;P2;durP2;ratioP2
5010;SDS011;2524;54.364;10.072;2023-01-29T00:01:04;11.60;;;9.10;;
5010;SDS011;2524;54.364;10.072;2023-01-29T00:03:30;10.67;;;7.83;;
5010;SDS011;2524;54.364;10.072;2023-01-29T00:05:57;9.00;;;8.10;;
5010;SDS011;2524;54.364;10.072;2023-01-29T00:08:23;12.43;;;8.23;;
5010;SDS011;2524;54.364;10.072;2023-01-29T00:10:48;9.80;;;7.87;;
5010;SDS011;2524;54.364;10.072;2023-01-29T00:13:14;15.83;;;10.50;;
5010;SDS011;2524;54.364;10.072;2023-01-29T00:15:40;14.03;;;10.73;;
5010;SDS011;2524;54.364;10.072;2023-01-29T00:18:05;24.10;;;14.20;;
5010;SDS011;2524;54.364;10.072;2023-01-29T00:20:31;15.30;;;11.00;;
5010;SDS011;2524;54.364;10.072;2023-01-29T00:22:57;13.60;;;9.73;;
5010;SDS011;2524;54.364;10.072;2023-01-29T00:25:23;21.83;;;12.73;;
5010;SDS011;2524;54.364;10.072;2023-01-29T00:27:49;14.20;;;9.27;;
5010;SDS011;2524;54.364;10.072;2023-01-29T00:30:15;10.47;;;8.30;;
5010;SDS011;2524;54.364;10.072;2023-01-29T00:32:43;9.10;;;7.23;;
5010;SDS011;2524;54.364;10.072;2023-01-29T00:35:09;13.43;;;8.60;;
5010;SDS011;2524;54.364;10.072;2023-01-29T00:37:35;11.80;;;8.53;;
5010;SDS011;2524;54.364;10.072;2023-01-29T00:40:03;7.67;;;6.97;;
5010;SDS011;2524;54.364;10.072;2023-01-29T00:42:29;7.73;;;6.80;;
5010;SDS011;2524;54.364;10.072;2023-01-29T00:45:13;13.00;;;8.63;;
5010;SDS011;2524;54.364;10.072;2023-01-29T00:47:39;15.00;;;11.27;;
5010;SDS011;2524;54.364;10.072;2023-01-29T00:50:05;19.33;;;11.60;;
5010;SDS011;2524;54.364;10.072;2023-01-29T00:52:34;15.07;;;10.70;;
5010;SDS011;2524;54.364;10.072;2023-01-29T00:55:05;16.40;;;11.00;;
5010;SDS011;2524;54.364;10.072;2023-01-29T00:57:31;18.30;;;11.60;;
5010;SDS011;2524;54.364;10.072;2023-01-29T00:59:58;13.57;;;9.83;;
5010;SDS011;2524;54.364;10.072;2023-01-29T01:02:25;26.70;;;13.83;;
5010;SDS011;2524;54.364;10.072;2023-01-29T01:05:11;18.67;;;11.73;;
5010;SDS011;2524;54.364;10.072;2023-01-29T01:07:42;13.30;;;10.10;;
5010;SDS011;2524;54.364;10.072;2023-01-29T01:10:11;21.93;;;13.30;;
5010;SDS011;2524;54.364;10.072;2023-01-29T01:12:49;16.70;;;12.77;;
5010;SDS011;2524;54.364;10.072;2023-01-29T01:15:18;22.27;;;13.13;;
5010;SDS011;2524;54.364;10.072;2023-01-29T01:17:44;18.50;;;12.10;;
5010;SDS011;2524;54.364;10.072;2023-01-29T01:20:11;14.77;;;10.40;;
5010;SDS011;2524;54.364;10.072;2023-01-29T01:22:37;19.03;;;11.67;;
5010;SDS011;2524;54.364;10.072;2023-01-29T01:25:02;14.80;;;10.33;;
5010;SDS011;2524;54.364;10.072;2023-01-29T01:27:29;15.00;;;10.10;;
5010;SDS011;2524;54.364;10.072;2023-01-29T01:29:55;12.83;;;9.27;;
5010;SDS011;2524;54.364;10.072;2023-01-29T01:32:20;13.90;;;9.90;;
5010;SDS011;2524;54.364;10.072;2023-01-29T01:34:46;11.97;;;9.30;;
5010;SDS011;2524;54.364;10.072;2023-01-29T01:37:11;10.10;;;8.17;;
5010;SDS011;2524;54.364;10.072;2023-01-29T01:39:37;8.63;;;7.60;;
5010;SDS011;2524;54.364;10.072;2023-01-29T01:42:04;13.53;;;9.57;;
5010;SDS011;2524;54.364;10.072;2023-01-29T01:44:51;10.80;;;8.40;;
5010;SDS011;2524;54.364;10.072;2023-01-29T01:47:20;7.73;;;6.13;;
5010;SDS011;2524;54.364;10.072;2023-01-29T01:49:51;6.37;;;5.77;;
5010;SDS011;2524;54.364;10.072;2023-01-29T01:52:18;5.37;;;4.87;;
5010;SDS011;2524;54.364;10.072;2023-01-29T01:54:44;4.70;;;4.30;;
5010;SDS011;2524;54.364;10.072;2023-01-29T01:57:12;6.10;;;5.20;;
5010;SDS011;2524;54.364;10.072;2023-01-29T01:59:45;6.27;;;5.67;;
5010;SDS011;2524;54.364;10.072;2023-01-29T02:02:14;5.20;;;4.77;;
5010;SDS011;2524;54.364;10.072;2023-01-29T02:05:00;5.73;;;5.20;;
5010;SDS011;2524;54.364;10.072;2023-01-29T02:07:45;6.70;;;4.73;;
5010;SDS011;2524;54.364;10.072;2023-01-29T02:10:34;7.27;;;5.17;;
5010;SDS011;2524;54.364;10.072;2023-01-29T02:13:04;6.17;;;5.07;;
5010;SDS011;2524;54.364;10.072;2023-01-29T02:15:31;4.43;;;4.13;;
5010;SDS011;2524;54.364;10.072;2023-01-29T02:17:57;12.13;;;6.10;;
5010;SDS011;2524;54.364;10.072;2023-01-29T02:20:24;11.90;;;7.17;;
5010;SDS011;2524;54.364;10.072;2023-01-29T02:31:28;5.90;;;5.40;;
5010;SDS011;2524;54.364;10.072;2023-01-29T02:36:46;4.90;;;4.40;;
5010;SDS011;2524;54.364;10.072;2023-01-29T02:39:37;5.67;;;5.00;;
5010;SDS011;2524;54.364;10.072;2023-01-29T02:44:54;4.07;;;3.80;;
5010;SDS011;2524;54.364;10.072;2023-01-29T02:52:34;8.13;;;5.60;;
5010;SDS011;2524;54.364;10.072;2023-01-29T02:55:15;5.60;;;5.10;;
5010;SDS011;2524;54.364;10.072;2023-01-29T02:57:46;13.00;;;5.90;;
5010;SDS011;2524;54.364;10.072;2023-01-29T03:05:25;4.47;;;3.70;;
5010;SDS011;2524;54.364;10.072;2023-01-29T03:07:58;6.20;;;3.50;;
5010;SDS011;2524;54.364;10.072;2023-01-29T03:13:12;2.70;;;2.50;;
5010;SDS011;2524;54.364;10.072;2023-01-29T03:15:43;2.30;;;2.20;;
5010;SDS011;2524;54.364;10.072;2023-01-29T03:18:18;1.90;;;1.90;;
5010;SDS011;2524;54.364;10.072;2023-01-29T03:20:50;2.20;;;2.10;;
5010;SDS011;2524;54.364;10.072;2023-01-29T03:23:26;4.00;;;3.60;;
5010;SDS011;2524;54.364;10.072;2023-01-29T03:26:14;5.30;;;3.50;;
5010;SDS011;2524;54.364;10.072;2023-01-29T03:29:00;4.87;;;4.30;;
5010;SDS011;2524;54.364;10.072;2023-01-29T03:31:46;3.87;;;3.57;;
5010;SDS011;2524;54.364;10.072;2023-01-29T03:34:39;4.83;;;4.37;;
5010;SDS011;2524;54.364;10.072;2023-01-29T03:37:12;4.47;;;4.00;;
5010;SDS011;2524;54.364;10.072;2023-01-29T03:39:50;5.73;;;5.20;;
5010;SDS011;2524;54.364;10.072;2023-01-29T03:44:57;6.73;;;5.93;;
5010;SDS011;2524;54.364;10.072;2023-01-29T03:56:01;6.40;;;5.80;;
5010;SDS011;2524;54.364;10.072;2023-01-29T04:00:57;28.70;;;9.77;;
5010;SDS011;2524;54.364;10.072;2023-01-29T04:03:34;14.90;;;9.70;;
5010;SDS011;2524;54.364;10.072;2023-01-29T04:06:13;7.30;;;6.60;;
5010;SDS011;2524;54.364;10.072;2023-01-29T04:11:27;7.87;;;6.90;;
5010;SDS011;2524;54.364;10.072;2023-01-29T04:13:55;10.20;;;7.60;;
5010;SDS011;2524;54.364;10.072;2023-01-29T04:16:30;8.70;;;6.10;;
5010;SDS011;2524;54.364;10.072;2023-01-29T04:19:00;9.13;;;6.67;;
5010;SDS011;2524;54.364;10.072;2023-01-29T04:21:26;11.13;;;8.77;;
5010;SDS011;2524;54.364;10.072;2023-01-29T04:23:53;12.30;;;7.93;;
5010;SDS011;2524;54.364;10.072;2023-01-29T04:37:16;22.80;;;10.90;;
5010;SDS011;2524;54.364;10.072;2023-01-29T04:39:54;13.90;;;8.50;;
5010;SDS011;2524;54.364;10.072;2023-01-29T04:43:02;9.20;;;8.30;;
5010;SDS011;2524;54.364;10.072;2023-01-29T04:48:19;7.80;;;6.97;;
5010;SDS011;2524;54.364;10.072;2023-01-29T04:53:33;13.83;;;10.17;;
5010;SDS011;2524;54.364;10.072;2023-01-29T04:56:33;16.27;;;10.67;;
5010;SDS011;2524;54.364;10.072;2023-01-29T04:59:18;9.17;;;7.30;;
5010;SDS011;2524;54.364;10.072;2023-01-29T05:01:55;10.80;;;9.13;;
5010;SDS011;2524;54.364;10.072;2023-01-29T05:04:24;8.57;;;7.23;;
5010;SDS011;2524;54.364;10.072;2023-01-29T05:06:51;9.10;;;7.60;;
5010;SDS011;2524;54.364;10.072;2023-01-29T05:09:17;7.07;;;6.10;;
5010;SDS011;2524;54.364;10.072;2023-01-29T05:11:44;7.03;;;6.43;;
5010;SDS011;2524;54.364;10.072;2023-01-29T05:14:12;21.77;;;12.53;;
5010;SDS011;2524;54.364;10.072;2023-01-29T05:16:41;24.37;;;13.57;;
5010;SDS011;2524;54.364;10.072;2023-01-29T05:19:10;24.20;;;14.27;;
5010;SDS011;2524;54.364;10.072;2023-01-29T05:21:37;22.17;;;14.07;;
5010;SDS011;2524;54.364;10.072;2023-01-29T05:24:15;18.30;;;13.20;;
5010;SDS011;2524;54.364;10.072;2023-01-29T05:26:42;15.57;;;11.77;;
5010;SDS011;2524;54.364;10.072;2023-01-29T05:29:27;20.17;;;13.23;;
5010;SDS011;2524;54.364;10.072;2023-01-29T05:31:53;17.30;;;12.70;;
5010;SDS011;2524;54.364;10.072;2023-01-29T05:34:19;17.13;;;12.37;;
5010;SDS011;2524;54.364;10.072;2023-01-29T05:36:44;20.27;;;13.27;;
5010;SDS011;2524;54.364;10.072;2023-01-29T05:39:10;15.10;;;11.80;;
5010;SDS011;2524;54.364;10.072;2023-01-29T05:41:35;14.40;;;11.03;;
5010;SDS011;2524;54.364;10.072;2023-01-29T05:44:01;23.83;;;13.67;;
5010;SDS011;2524;54.364;10.072;2023-01-29T05:46:27;15.53;;;11.30;;
5010;SDS011;2524;54.364;10.072;2023-01-29T05:48:53;16.13;;;11.07;;
5010;SDS011;2524;54.364;10.072;2023-01-29T05:51:18;10.00;;;8.37;;
5010;SDS011;2524;54.364;10.072;2023-01-29T05:53:44;9.00;;;7.90;;
5010;SDS011;2524;54.364;10.072;2023-01-29T05:56:09;7.37;;;6.77;;
5010;SDS011;2524;54.364;10.072;2023-01-29T05:58:35;6.83;;;5.93;;
5010;SDS011;2524;54.364;10.072;2023-01-29T06:01:11;6.67;;;6.07;;
5010;SDS011;2524;54.364;10.072;2023-01-29T06:03:45;12.40;;;9.30;;
5010;SDS011;2524;54.364;10.072;2023-01-29T06:06:11;10.03;;;8.70;;
5010;SDS011;2524;54.364;10.072;2023-01-29T06:08:36;6.40;;;5.90;;
5010;SDS011;2524;54.364;10.072;2023-01-29T06:11:03;6.97;;;6.27;;
5010;SDS011;2524;54.364;10.072;2023-01-29T06:13:31;13.90;;;8.40;;
5010;SDS011;2524;54.364;10.072;2023-01-29T06:15:56;9.63;;;8.63;;
5010;SDS011;2524;54.364;10.072;2023-01-29T06:18:22;8.27;;;7.43;;
5010;SDS011;2524;54.364;10.072;2023-01-29T06:20:47;6.83;;;5.97;;
5010;SDS011;2524;54.364;10.072;2023-01-29T06:23:13;6.60;;;6.00;;
5010;SDS011;2524;54.364;10.072;2023-01-29T06:25:39;5.43;;;5.03;;
5010;SDS011;2524;54.364;10.072;2023-01-29T06:28:07;5.00;;;4.70;;
5010;SDS011;2524;54.364;10.072;2023-01-29T06:30:42;4.53;;;4.23;;
5010;SDS011;2524;54.364;10.072;2023-01-29T06:33:07;3.60;;;3.40;;
5010;SDS011;2524;54.364;10.072;2023-01-29T06:35:33;4.10;;;3.90;;
5010;SDS011;2524;54.364;10.072;2023-01-29T06:37:59;3.90;;;3.70;;
5010;SDS011;2524;54.364;10.072;2023-01-29T06:40:24;3.43;;;3.23;;
5010;SDS011;2524;54.364;10.072;2023-01-29T06:42:50;3.43;;;3.30;;
5010;SDS011;2524;54.364;10.072;2023-01-29T06:45:15;3.70;;;3.40;;
5010;SDS011;2524;54.364;10.072;2023-01-29T06:47:41;3.50;;;3.20;;
5010;SDS011;2524;54.364;10.072;2023-01-29T06:50:08;2.70;;;2.50;;
5010;SDS011;2524;54.364;10.072;2023-01-29T06:52:38;3.00;;;2.80;;
5010;SDS011;2524;54.364;10.072;2023-01-29T06:55:03;2.13;;;2.03;;
5010;SDS011;2524;54.364;10.072;2023-01-29T06:57:29;2.17;;;2.00;;
5010;SDS011;2524;54.364;10.072;2023-01-29T06:59:55;2.07;;;1.90;;
5010;SDS011;2524;54.364;10.072;2023-01-29T07:02:21;2.10;;;2.00;;
5010;SDS011;2524;54.364;10.072;2023-01-29T07:04:46;2.47;;;2.27;;
5010;SDS011;2524;54.364;10.072;2023-01-29T07:07:12;8.83;;;3.37;;
5010;SDS011;2524;54.364;10.072;2023-01-29T07:09:41;4.00;;;2.33;;
5010;SDS011;2524;54.364;10.072;2023-01-29T07:12:09;2.67;;;2.47;;
5010;SDS011;2524;54.364;10.072;2023-01-29T07:14:37;2.33;;;2.17;;
5010;SDS011;2524;54.364;10.072;2023-01-29T07:17:03;3.83;;;3.03;;
5010;SDS011;2524;54.364;10.072;2023-01-29T07:19:28;2.90;;;2.70;;
5010;SDS011;2524;54.364;10.072;2023-01-29T07:21:54;2.80;;;2.70;;
5010;SDS011;2524;54.364;10.072;2023-01-29T07:24:19;3.93;;;3.60;;
5010;SDS011;2524;54.364;10.072;2023-01-29T07:26:45;3.53;;;3.23;;
5010;SDS011;2524;54.364;10.072;2023-01-29T07:29:11;2.80;;;2.60;;
5010;SDS011;2524;54.364;10.072;2023-01-29T07:31:36;5.30;;;2.30;;
5010;SDS011;2524;54.364;10.072;2023-01-29T07:34:02;3.60;;;3.50;;
5010;SDS011;2524;54.364;10.072;2023-01-29T07:36:28;4.73;;;4.33;;
5010;SDS011;2524;54.364;10.072;2023-01-29T07:38:53;8.43;;;6.07;;
5010;SDS011;2524;54.364;10.072;2023-01-29T07:41:19;7.37;;;6.77;;
5010;SDS011;2524;54.364;10.072;2023-01-29T07:43:45;7.30;;;6.70;;
5010;SDS011;2524;54.364;10.072;2023-01-29T07:46:11;6.93;;;6.30;;
5010;SDS011;2524;54.364;10.072;2023-01-29T07:48:37;8.27;;;7.47;;
5010;SDS011;2524;54.364;10.072;2023-01-29T07:51:02;9.90;;;8.30;;
5010;SDS011;2524;54.364;10.072;2023-01-29T07:53:29;11.03;;;9.07;;
5010;SDS011;2524;54.364;10.072;2023-01-29T07:55:55;9.60;;;8.63;;
5010;SDS011;2524;54.364;10.072;2023-01-29T07:58:21;11.93;;;9.13;;
5010;SDS011;2524;54.364;10.072;2023-01-29T08:00:46;14.87;;;10.00;;
5010;SDS011;2524;54.364;10.072;2023-01-29T08:03:13;14.17;;;8.93;;
5010;SDS011;2524;54.364;10.072;2023-01-29T08:05:41;10.80;;;8.60;;
5010;SDS011;2524;54.364;10.072;2023-01-29T08:08:09;8.20;;;7.40;;
5010;SDS011;2524;54.364;10.072;2023-01-29T08:10:35;7.97;;;6.70;;
5010;SDS011;2524;54.364;10.072;2023-01-29T08:13:02;11.10;;;8.50;;
5010;SDS011;2524;54.364;10.072;2023-01-29T08:15:29;10.70;;;8.10;;
5010;SDS011;2524;54.364;10.072;2023-01-29T08:17:54;9.90;;;7.93;;
5010;SDS011;2524;54.364;10.072;2023-01-29T08:20:20;8.73;;;7.13;;
5010;SDS011;2524;54.364;10.072;2023-01-29T08:22:47;8.13;;;7.30;;
5010;SDS011;2524;54.364;10.072;2023-01-29T08:25:13;14.33;;;9.20;;
5010;SDS011;2524;54.364;10.072;2023-01-29T08:27:39;8.87;;;7.30;;
5010;SDS011;2524;54.364;10.072;2023-01-29T08:30:06;9.43;;;7.50;;
5010;SDS011;2524;54.364;10.072;2023-01-29T08:32:33;7.90;;;7.10;;
5010;SDS011;2524;54.364;10.072;2023-01-29T08:34:58;6.73;;;6.23;;
5010;SDS011;2524;54.364;10.072;2023-01-29T08:37:24;16.40;;;9.90;;
5010;SDS011;2524;54.364;10.072;2023-01-29T08:39:50;11.83;;;9.90;;
5010;SDS011;2524;54.364;10.072;2023-01-29T08:42:15;16.13;;;10.33;;
5010;SDS011;2524;54.364;10.072;2023-01-29T08:44:42;11.13;;;9.60;;
5010;SDS011;2524;54.364;10.072;2023-01-29T08:47:09;15.30;;;11.93;;
5010;SDS011;2524;54.364;10.072;2023-01-29T08:49:34;15.73;;;13.40;;
5010;SDS011;2524;54.364;10.072;2023-01-29T08:52:00;14.83;;;10.43;;
5010;SDS011;2524;54.364;10.072;2023-01-29T08:54:25;12.80;;;10.80;;
5010;SDS011;2524;54.364;10.072;2023-01-29T08:56:51;11.07;;;9.97;;
5010;SDS011;2524;54.364;10.072;2023-01-29T08:59:17;14.97;;;11.50;;
5010;SDS011;2524;54.364;10.072;2023-01-29T09:01:43;13.97;;;10.60;;
5010;SDS011;2524;54.364;10.072;2023-01-29T09:04:08;11.63;;;10.30;;
5010;SDS011;2524;54.364;10.072;2023-01-29T09:06:34;23.23;;;13.00;;
5010;SDS011;2524;54.364;10.072;2023-01-29T09:08:59;13.87;;;11.00;;
5010;SDS011;2524;54.364;10.072;2023-01-29T09:11:25;15.70;;;12.67;;
5010;SDS011;2524;54.364;10.072;2023-01-29T09:13:51;13.20;;;11.80;;
5010;SDS011;2524;54.364;10.072;2023-01-29T09:16:16;17.20;;;13.90;;
5010;SDS011;2524;54.364;10.072;2023-01-29T09:18:42;16.83;;;11.40;;
5010;SDS011;2524;54.364;10.072;2023-01-29T09:21:08;12.97;;;10.27;;
5010;SDS011;2524;54.364;10.072;2023-01-29T09:23:34;16.93;;;10.07;;
5010;SDS011;2524;54.364;10.072;2023-01-29T09:25:59;13.73;;;10.47;;
5010;SDS011;2524;54.364;10.072;2023-01-29T09:28:28;17.43;;;12.03;;
5010;SDS011;2524;54.364;10.072;2023-01-29T09:30:53;13.97;;;11.13;;
5010;SDS011;2524;54.364;10.072;2023-01-29T09:33:19;11.90;;;9.60;;
5010;SDS011;2524;54.364;10.072;2023-01-29T09:35:45;14.10;;;10.77;;
5010;SDS011;2524;54.364;10.072;2023-01-29T09:38:11;11.10;;;9.83;;
5010;SDS011;2524;54.364;10.072;2023-01-29T09:40:45;10.73;;;8.97;;
5010;SDS011;2524;54.364;10.072;2023-01-29T09:43:20;13.87;;;10.27;;
5010;SDS011;2524;54.364;10.072;2023-01-29T09:46:14;9.80;;;8.33;;
5010;SDS011;2524;54.364;10.072;2023-01-29T09:49:03;14.80;;;10.07;;
5010;SDS011;2524;54.364;10.072;2023-01-29T09:51:48;12.80;;;9.47;;
5010;SDS011;2524;54.364;10.072;2023-01-29T09:54:18;10.23;;;8.87;;
5010;SDS011;2524;54.364;10.072;2023-01-29T09:56:46;11.50;;;9.43;;
5010;SDS011;2524;54.364;10.072;2023-01-29T09:59:14;9.40;;;8.30;;
5010;SDS011;2524;54.364;10.072;2023-01-29T10:04:23;8.57;;;7.67;;
5010;SDS011;2524;54.364;10.072;2023-01-29T10:17:43;11.60;;;8.07;;
5010;SDS011;2524;54.364;10.072;2023-01-29T10:23:23;10.00;;;8.83;;
5010;SDS011;2524;54.364;10.072;2023-01-29T10:25:56;11.87;;;9.07;;
5010;SDS011;2524;54.364;10.072;2023-01-29T10:28:24;9.03;;;8.10;;
5010;SDS011;2524;54.364;10.072;2023-01-29T10:34:04;11.10;;;9.30;;
5010;SDS011;2524;54.364;10.072;2023-01-29T10:36:44;9.93;;;8.93;;
5010;SDS011;2524;54.364;10.072;2023-01-29T10:39:18;12.87;;;10.03;;
5010;SDS011;2524;54.364;10.072;2023-01-29T10:50:16;17.93;;;12.10;;
5010;SDS011;2524;54.364;10.072;2023-01-29T10:53:13;16.80;;;13.30;;
5010;SDS011;2524;54.364;10.072;2023-01-29T10:58:58;21.17;;;16.00;;
5010;SDS011;2524;54.364;10.072;2023-01-29T11:01:27;20.90;;;14.30;;
5010;SDS011;2524;54.364;10.072;2023-01-29T11:03:54;17.27;;;13.60;;
5010;SDS011;2524;54.364;10.072;2023-01-29T11:06:24;17.07;;;13.07;;
5010;SDS011;2524;54.364;10.072;2023-01-29T11:11:49;13.07;;;10.47;;
5010;SDS011;2524;54.364;10.072;2023-01-29T11:14:29;14.40;;;11.63;;
5010;SDS011;2524;54.364;10.072;2023-01-29T11:17:17;16.70;;;12.00;;
5010;SDS011;2524;54.364;10.072;2023-01-29T11:19:46;13.87;;;10.57;;
5010;SDS011;2524;54.364;10.072;2023-01-29T11:22:16;12.30;;;9.83;;
5010;SDS011;2524;54.364;10.072;2023-01-29T11:24:43;12.77;;;10.30;;
5010;SDS011;2524;54.364;10.072;2023-01-29T11:27:28;17.67;;;13.20;;
5010;SDS011;2524;54.364;10.072;2023-01-29T11:29:59;14.73;;;11.23;;
5010;SDS011;2524;54.364;10.072;2023-01-29T11:32:27;11.53;;;9.83;;
5010;SDS011;2524;54.364;10.072;2023-01-29T11:37:23;14.20;;;11.20;;
5010;SDS011;2524;54.364;10.072;2023-01-29T11:39:57;12.13;;;10.17;;
5010;SDS011;2524;54.364;10.072;2023-01-29T11:42:22;12.23;;;9.00;;
5010;SDS011;2524;54.364;10.072;2023-01-29T11:44:50;14.83;;;11.63;;
5010;SDS011;2524;54.364;10.072;2023-01-29T11:47:20;11.37;;;10.17;;
5010;SDS011;2524;54.364;10.072;2023-01-29T11:49:50;12.67;;;10.97;;
5010;SDS011;2524;54.364;10.072;2023-01-29T11:52:19;11.60;;;9.17;;
5010;SDS011;2524;54.364;10.072;2023-01-29T11:54:57;13.40;;;10.50;;
5010;SDS011;2524;54.364;10.072;2023-01-29T11:57:31;12.30;;;10.10;;
5010;SDS011;2524;54.364;10.072;2023-01-29T12:02:48;17.40;;;10.83;;
5010;SDS011;2524;54.364;10.072;2023-01-29T12:05:18;11.90;;;10.60;;
5010;SDS011;2524;54.364;10.072;2023-01-29T12:07:47;12.80;;;11.17;;
5010;SDS011;2524;54.364;10.072;2023-01-29T12:15:40;13.53;;;11.90;;
5010;SDS011;2524;54.364;10.072;2023-01-29T12:20:45;14.50;;;11.70;;
5010;SDS011;2524;54.364;10.072;2023-01-29T12:23:26;14.43;;;12.70;;
5010;SDS011;2524;54.364;10.072;2023-01-29T12:26:15;15.40;;;12.33;;
5010;SDS011;2524;54.364;10.072;2023-01-29T12:28:54;13.47;;;11.73;;
5010;SDS011;2524;54.364;10.072;2023-01-29T12:37:12;13.97;;;11.40;;
5010;SDS011;2524;54.364;10.072;2023-01-29T12:40:14;16.90;;;12.43;;
5010;SDS011;2524;54.364;10.072;2023-01-29T12:42:42;14.70;;;12.03;;
5010;SDS011;2524;54.364;10.072;2023-01-29T12:45:15;17.70;;;14.90;;
5010;SDS011;2524;54.364;10.072;2023-01-29T12:47:45;16.77;;;13.37;;
5010;SDS011;2524;54.364;10.072;2023-01-29T12:52:53;18.23;;;13.40;;
5010;SDS011;2524;54.364;10.072;2023-01-29T12:55:26;20.63;;;15.10;;
5010;SDS011;2524;54.364;10.072;2023-01-29T12:58:24;17.27;;;13.73;;
5010;SDS011;2524;54.364;10.072;2023-01-29T13:00:56;16.43;;;13.43;;
5010;SDS011;2524;54.364;10.072;2023-01-29T13:03:32;17.90;;;14.70;;
5010;SDS011;2524;54.364;10.072;2023-01-29T13:06:16;21.93;;;16.37;;
5010;SDS011;2524;54.364;10.072;2023-01-29T13:08:49;19.20;;;15.70;;
5010;SDS011;2524;54.364;10.072;2023-01-29T13:16:54;19.77;;;15.80;;
5010;SDS011;2524;54.364;10.072;2023-01-29T13:19:27;20.00;;;15.40;;
5010;SDS011;2524;54.364;10.072;2023-01-29T13:21:54;17.90;;;13.40;;
5010;SDS011;2524;54.364;10.072;2023-01-29T13:24:23;16.67;;;13.37;;
5010;SDS011;2524;54.364;10.072;2023-01-29T13:26:51;16.00;;;12.33;;
5010;SDS011;2524;54.364;10.072;2023-01-29T13:29:27;15.87;;;13.20;;
5010;SDS011;2524;54.364;10.072;2023-01-29T13:32:01;15.90;;;12.07;;
5010;SDS011;2524;54.364;10.072;2023-01-29T13:36:59;15.57;;;12.80;;
5010;SDS011;2524;54.364;10.072;2023-01-29T13:39:28;13.90;;;12.20;;
5010;SDS011;2524;54.364;10.072;2023-01-29T13:41:55;15.87;;;13.27;;
5010;SDS011;2524;54.364;10.072;2023-01-29T13:44:32;14.87;;;12.67;;
5010;SDS011;2524;54.364;10.072;2023-01-29T13:47:02;13.97;;;12.23;;
5010;SDS011;2524;54.364;10.072;2023-01-29T13:50:16;13.43;;;12.03;;
5010;SDS011;2524;54.364;10.072;2023-01-29T13:52:40;15.30;;;12.50;;
5010;SDS011;2524;54.364;10.072;2023-01-29T14:05:36;14.30;;;11.30;;
5010;SDS011;2524;54.364;10.072;2023-01-29T14:10:39;15.83;;;13.70;;
5010;SDS011;2524;54.364;10.072;2023-01-29T14:15:43;18.23;;;13.80;;
5010;SDS011;2524;54.364;10.072;2023-01-29T14:18:23;14.40;;;12.13;;
5010;SDS011;2524;54.364;10.072;2023-01-29T14:20:51;16.10;;;14.40;;
5010;SDS011;2524;54.364;10.072;2023-01-29T14:28:59;14.70;;;13.20;;
5010;SDS011;2524;54.364;10.072;2023-01-29T14:34:20;14.20;;;12.77;;
5010;SDS011;2524;54.364;10.072;2023-01-29T14:36:57;14.27;;;12.27;;
5010;SDS011;2524;54.364;10.072;2023-01-29T14:39:34;14.17;;;11.80;;
5010;SDS011;2524;54.364;10.072;2023-01-29T14:42:13;13.80;;;11.87;;
5010;SDS011;2524;54.364;10.072;2023-01-29T14:50:00;11.33;;;10.23;;
5010;SDS011;2524;54.364;10.072;2023-01-29T14:52:37;14.33;;;12.83;;
5010;SDS011;2524;54.364;10.072;2023-01-29T14:55:07;12.90;;;11.60;;
5010;SDS011;2524;54.364;10.072;2023-01-29T14:57:39;11.77;;;10.67;;
5010;SDS011;2524;54.364;10.072;2023-01-29T15:00:19;14.47;;;12.93;;
5010;SDS011;2524;54.364;10.072;2023-01-29T15:03:24;15.70;;;11.90;;
5010;SDS011;2524;54.364;10.072;2023-01-29T15:05:57;15.17;;;12.87;;
5010;SDS011;2524;54.364;10.072;2023-01-29T15:08:26;12.33;;;11.03;;
5010;SDS011;2524;54.364;10.072;2023-01-29T15:10:56;19.07;;;15.07;;
5010;SDS011;2524;54.364;10.072;2023-01-29T15:19:37;16.27;;;13.37;;
5010;SDS011;2524;54.364;10.072;2023-01-29T15:22:18;15.20;;;12.60;;
5010;SDS011;2524;54.364;10.072;2023-01-29T15:24:46;17.13;;;13.80;;
5010;SDS011;2524;54.364;10.072;2023-01-29T15:27:26;15.07;;;12.63;;
5010;SDS011;2524;54.364;10.072;2023-01-29T15:29:56;16.23;;;13.37;;
5010;SDS011;2524;54.364;10.072;2023-01-29T15:32:30;12.40;;;10.80;;
5010;SDS011;2524;54.364;10.072;2023-01-29T15:34:59;14.90;;;12.97;;
5010;SDS011;2524;54.364;10.072;2023-01-29T15:37:29;17.33;;;14.70;;
5010;SDS011;2524;54.364;10.072;2023-01-29T15:39:57;16.60;;;13.10;;
5010;SDS011;2524;54.364;10.072;2023-01-29T15:42:24;20.63;;;14.73;;
5010;SDS011;2524;54.364;10.072;2023-01-29T15:44:51;16.77;;;13.77;;
5010;SDS011;2524;54.364;10.072;2023-01-29T15:47:21;19.90;;;14.73;;
5010;SDS011;2524;54.364;10.072;2023-01-29T15:49:54;21.87;;;15.27;;
5010;SDS011;2524;54.364;10.072;2023-01-29T15:52:28;17.53;;;14.43;;
5010;SDS011;2524;54.364;10.072;2023-01-29T15:55:00;20.20;;;14.40;;
5010;SDS011;2524;54.364;10.072;2023-01-29T15:57:32;20.93;;;15.20;;
5010;SDS011;2524;54.364;10.072;2023-01-29T16:00:05;19.97;;;14.43;;
5010;SDS011;2524;54.364;10.072;2023-01-29T16:02:39;20.13;;;14.73;;
5010;SDS011;2524;54.364;10.072;2023-01-29T16:05:08;29.83;;;15.70;;
5010;SDS011;2524;54.364;10.072;2023-01-29T16:07:43;19.83;;;14.40;;
5010;SDS011;2524;54.364;10.072;2023-01-29T16:10:13;21.40;;;14.50;;
5010;SDS011;2524;54.364;10.072;2023-01-29T16:12:42;18.97;;;14.43;;
5010;SDS011;2524;54.364;10.072;2023-01-29T16:15:14;14.03;;;12.47;;
5010;SDS011;2524;54.364;10.072;2023-01-29T16:17:57;24.93;;;15.40;;
5010;SDS011;2524;54.364;10.072;2023-01-29T16:20:30;15.60;;;12.30;;
5010;SDS011;2524;54.364;10.072;2023-01-29T16:23:34;20.57;;;13.03;;
5010;SDS011;2524;54.364;10.072;2023-01-29T16:26:05;17.00;;;12.00;;
5010;SDS011;2524;54.364;10.072;2023-01-29T16:28:32;18.50;;;13.13;;
5010;SDS011;2524;54.364;10.072;2023-01-29T16:31:04;17.80;;;12.33;;
5010;SDS011;2524;54.364;10.072;2023-01-29T16:33:32;16.57;;;11.53;;
5010;SDS011;2524;54.364;10.072;2023-01-29T16:36:03;17.10;;;12.53;;
5010;SDS011;2524;54.364;10.072;2023-01-29T16:38:56;12.20;;;10.40;;
5010;SDS011;2524;54.364;10.072;2023-01-29T16:48:57;9.70;;;8.70;;
5010;SDS011;2524;54.364;10.072;2023-01-29T16:51:26;8.77;;;7.87;;
5010;SDS011;2524;54.364;10.072;2023-01-29T16:53:55;14.53;;;10.20;;
5010;SDS011;2524;54.364;10.072;2023-01-29T16:56:22;12.20;;;9.70;;
5010;SDS011;2524;54.364;10.072;2023-01-29T16:58:50;11.80;;;10.00;;
5010;SDS011;2524;54.364;10.072;2023-01-29T17:01:17;12.50;;;10.10;;
5010;SDS011;2524;54.364;10.072;2023-01-29T17:03:44;11.27;;;9.90;;
5010;SDS011;2524;54.364;10.072;2023-01-29T17:06:22;12.60;;;10.20;;
5010;SDS011;2524;54.364;10.072;2023-01-29T17:08:50;10.80;;;9.70;;
5010;SDS011;2524;54.364;10.072;2023-01-29T17:11:26;12.30;;;10.93;;
5010;SDS011;2524;54.364;10.072;2023-01-29T17:13:57;10.80;;;9.70;;
5010;SDS011;2524;54.364;10.072;2023-01-29T17:16:31;10.60;;;9.40;;
5010;SDS011;2524;54.364;10.072;2023-01-29T17:18:58;11.80;;;9.07;;
5010;SDS011;2524;54.364;10.072;2023-01-29T17:21:24;13.30;;;10.70;;
5010;SDS011;2524;54.364;10.072;2023-01-29T17:23:51;14.67;;;10.70;;
5010;SDS011;2524;54.364;10.072;2023-01-29T17:26:16;14.00;;;11.90;;
5010;SDS011;2524;54.364;10.072;2023-01-29T17:28:43;10.53;;;9.43;;
5010;SDS011;2524;54.364;10.072;2023-01-29T17:31:09;12.90;;;8.93;;
5010;SDS011;2524;54.364;10.072;2023-01-29T17:33:36;12.67;;;10.13;;
5010;SDS011;2524;54.364;10.072;2023-01-29T17:36:08;13.27;;;10.80;;
5010;SDS011;2524;54.364;10.072;2023-01-29T17:38:36;11.70;;;10.50;;
5010;SDS011;2524;54.364;10.072;2023-01-29T17:41:10;10.63;;;9.57;;
5010;SDS011;2524;54.364;10.072;2023-01-29T17:43:43;13.33;;;11.00;;
5010;SDS011;2524;54.364;10.072;2023-01-29T17:46:11;13.67;;;9.50;;
5010;SDS011;2524;54.364;10.072;2023-01-29T17:48:38;14.77;;;11.77;;
5010;SDS011;2524;54.364;10.072;2023-01-29T17:51:04;11.13;;;9.90;;
5010;SDS011;2524;54.364;10.072;2023-01-29T17:53:33;14.37;;;11.70;;